sensor_id;sensor_type;location;lat;lon;timestamp;P1;durP1;ratioP1;P2;durP2;ratioP2
27670;SDS011;15077;49.704;9.908;2022-07-12T00:02:17;0.20;;;0.20;;
27670;SDS011;15077;49.704;9.908;2022-07-12T00:04:43;1.27;;;0.30;;
27670;SDS011;15077;49.704;9.908;2022-07-12T00:07:09;0.95;;;0.20;;
27670;SDS011;15077;49.704;9.908;2022-07-12T00:09:35;0.20;;;0.20;;
27670;SDS011;15077;49.704;9.908;2022-07-12T00:12:01;0.30;;;0.20;;
27670;SDS011;15077;49.704;9.908;2022-07-12T00:14:28;0.20;;;0.20;;
27670;SDS011;15077;49.704;9.908;2022-07-12T00:16:53;0.30;;;0.22;;
27670;SDS011;15077;49.704;9.908;2022-07-12T00:19:19;0.77;;;0.40;;
27670;SDS011;15077;49.704;9.908;2022-07-12T00:21:45;0.30;;;0.30;;
27670;SDS011;15077;49.704;9.908;2022-07-12T00:24:11;0.20;;;0.20;;
27670;SDS011;15077;49.704;9.908;2022-07-12T00:26:37;0.35;;;0.30;;
27670;SDS011;15077;49.704;9.908;2022-07-12T00:29:02;0.30;;;0.30;;
27670;SDS011;15077;49.704;9.908;2022-07-12T00:31:28;0.20;;;0.20;;
27670;SDS011;15077;49.704;9.908;2022-07-12T00:33:54;0.32;;;0.30;;
27670;SDS011;15077;49.704;9.908;2022-07-12T00:36:22;0.20;;;0.20;;
27670;SDS011;15077;49.704;9.908;2022-07-12T00:38:48;0.30;;;0.22;;
27670;SDS011;15077;49.704;9.908;2022-07-12T00:41:14;1.67;;;0.30;;
27670;SDS011;15077;49.704;9.908;2022-07-12T00:43:41;0.30;;;0.20;;
27670;SDS011;15077;49.704;9.908;2022-07-12T00:46:09;0.50;;;0.30;;
27670;SDS011;15077;49.704;9.908;2022-07-12T00:48:36;0.20;;;0.20;;
27670;SDS011;15077;49.704;9.908;2022-07-12T00:51:02;0.20;;;0.20;;
27670;SDS011;15077;49.704;9.908;2022-07-12T00:53:28;0.50;;;0.30;;
27670;SDS011;15077;49.704;9.908;2022-07-12T00:55:55;0.20;;;0.20;;
27670;SDS011;15077;49.704;9.908;2022-07-12T00:58:23;0.20;;;0.20;;
27670;SDS011;15077;49.704;9.908;2022-07-12T01:00:51;0.25;;;0.20;;
27670;SDS011;15077;49.704;9.908;2022-07-12T01:03:20;0.32;;;0.28;;
27670;SDS011;15077;49.704;9.908;2022-07-12T01:05:47;0.20;;;0.20;;
27670;SDS011;15077;49.704;9.908;2022-07-12T01:08:13;0.22;;;0.20;;
27670;SDS011;15077;49.704;9.908;2022-07-12T01:10:40;0.35;;;0.20;;
27670;SDS011;15077;49.704;9.908;2022-07-12T01:13:08;0.20;;;0.20;;
27670;SDS011;15077;49.704;9.908;2022-07-12T01:15:34;0.30;;;0.30;;
27670;SDS011;15077;49.704;9.908;2022-07-12T01:18:01;0.40;;;0.30;;
27670;SDS011;15077;49.704;9.908;2022-07-12T01:20:29;0.30;;;0.30;;
27670;SDS011;15077;49.704;9.908;2022-07-12T01:22:56;0.57;;;0.32;;
27670;SDS011;15077;49.704;9.908;2022-07-12T01:25:23;0.70;;;0.30;;
27670;SDS011;15077;49.704;9.908;2022-07-12T01:27:49;0.10;;;0.10;;
27670;SDS011;15077;49.704;9.908;2022-07-12T01:30:17;0.35;;;0.25;;
27670;SDS011;15077;49.704;9.908;2022-07-12T01:32:45;0.10;;;0.10;;
27670;SDS011;15077;49.704;9.908;2022-07-12T01:35:11;0.25;;;0.20;;
27670;SDS011;15077;49.704;9.908;2022-07-12T01:37:39;1.23;;;0.30;;
27670;SDS011;15077;49.704;9.908;2022-07-12T01:40:11;0.20;;;0.20;;
27670;SDS011;15077;49.704;9.908;2022-07-12T01:42:39;0.20;;;0.20;;
27670;SDS011;15077;49.704;9.908;2022-07-12T01:45:06;0.22;;;0.20;;
27670;SDS011;15077;49.704;9.908;2022-07-12T01:47:33;0.30;;;0.20;;
27670;SDS011;15077;49.704;9.908;2022-07-12T01:50:00;0.40;;;0.40;;
27670;SDS011;15077;49.704;9.908;2022-07-12T01:52:37;0.35;;;0.30;;
27670;SDS011;15077;49.704;9.908;2022-07-12T01:55:05;0.22;;;0.22;;
27670;SDS011;15077;49.704;9.908;2022-07-12T01:57:32;0.70;;;0.40;;
27670;SDS011;15077;49.704;9.908;2022-07-12T02:00:01;0.28;;;0.20;;
27670;SDS011;15077;49.704;9.908;2022-07-12T02:02:31;0.30;;;0.30;;
27670;SDS011;15077;49.704;9.908;2022-07-12T02:04:58;0.40;;;0.20;;
27670;SDS011;15077;49.704;9.908;2022-07-12T02:07:28;0.13;;;0.13;;
27670;SDS011;15077;49.704;9.908;2022-07-12T02:09:55;0.20;;;0.20;;
27670;SDS011;15077;49.704;9.908;2022-07-12T02:12:22;0.28;;;0.28;;
27670;SDS011;15077;49.704;9.908;2022-07-12T02:14:48;0.30;;;0.30;;
27670;SDS011;15077;49.704;9.908;2022-07-12T02:17:15;0.52;;;0.22;;
27670;SDS011;15077;49.704;9.908;2022-07-12T02:19:42;0.30;;;0.30;;
27670;SDS011;15077;49.704;9.908;2022-07-12T02:22:10;0.20;;;0.20;;
27670;SDS011;15077;49.704;9.908;2022-07-12T02:24:37;0.38;;;0.28;;
27670;SDS011;15077;49.704;9.908;2022-07-12T02:27:03;0.30;;;0.20;;
27670;SDS011;15077;49.704;9.908;2022-07-12T02:29:31;1.35;;;0.30;;
27670;SDS011;15077;49.704;9.908;2022-07-12T02:31:57;0.20;;;0.20;;
27670;SDS011;15077;49.704;9.908;2022-07-12T02:34:23;0.20;;;0.20;;
27670;SDS011;15077;49.704;9.908;2022-07-12T02:36:48;0.30;;;0.20;;
27670;SDS011;15077;49.704;9.908;2022-07-12T02:39:14;2.65;;;0.30;;
27670;SDS011;15077;49.704;9.908;2022-07-12T02:41:40;0.50;;;0.30;;
27670;SDS011;15077;49.704;9.908;2022-07-12T02:44:06;0.45;;;0.30;;
27670;SDS011;15077;49.704;9.908;2022-07-12T02:46:33;0.10;;;0.10;;
27670;SDS011;15077;49.704;9.908;2022-07-12T02:49:00;0.60;;;0.30;;
27670;SDS011;15077;49.704;9.908;2022-07-12T02:51:27;0.38;;;0.30;;
27670;SDS011;15077;49.704;9.908;2022-07-12T02:53:53;0.30;;;0.30;;
27670;SDS011;15077;49.704;9.908;2022-07-12T02:56:19;0.45;;;0.30;;
27670;SDS011;15077;49.704;9.908;2022-07-12T02:58:45;0.30;;;0.20;;
27670;SDS011;15077;49.704;9.908;2022-07-12T03:01:11;0.70;;;0.30;;
27670;SDS011;15077;49.704;9.908;2022-07-12T03:03:37;0.20;;;0.20;;
27670;SDS011;15077;49.704;9.908;2022-07-12T03:06:03;0.25;;;0.25;;
27670;SDS011;15077;49.704;9.908;2022-07-12T03:08:29;0.57;;;0.32;;
27670;SDS011;15077;49.704;9.908;2022-07-12T03:10:55;0.20;;;0.20;;
27670;SDS011;15077;49.704;9.908;2022-07-12T03:13:20;0.30;;;0.20;;
27670;SDS011;15077;49.704;9.908;2022-07-12T03:15:46;0.50;;;0.30;;
27670;SDS011;15077;49.704;9.908;2022-07-12T03:18:13;0.50;;;0.30;;
27670;SDS011;15077;49.704;9.908;2022-07-12T03:20:39;0.30;;;0.30;;
27670;SDS011;15077;49.704;9.908;2022-07-12T03:23:05;0.30;;;0.28;;
27670;SDS011;15077;49.704;9.908;2022-07-12T03:25:30;0.52;;;0.28;;
27670;SDS011;15077;49.704;9.908;2022-07-12T03:27:57;0.45;;;0.30;;
27670;SDS011;15077;49.704;9.908;2022-07-12T03:30:24;0.55;;;0.35;;
27670;SDS011;15077;49.704;9.908;2022-07-12T03:32:50;0.25;;;0.20;;
27670;SDS011;15077;49.704;9.908;2022-07-12T03:35:16;0.50;;;0.30;;
27670;SDS011;15077;49.704;9.908;2022-07-12T03:37:45;0.52;;;0.30;;
27670;SDS011;15077;49.704;9.908;2022-07-12T03:40:14;0.52;;;0.35;;
27670;SDS011;15077;49.704;9.908;2022-07-12T03:42:46;0.30;;;0.30;;
27670;SDS011;15077;49.704;9.908;2022-07-12T03:45:13;0.47;;;0.30;;
27670;SDS011;15077;49.704;9.908;2022-07-12T03:47:40;0.90;;;0.65;;
27670;SDS011;15077;49.704;9.908;2022-07-12T03:50:08;1.65;;;1.23;;
27670;SDS011;15077;49.704;9.908;2022-07-12T03:52:37;2.47;;;1.73;;
27670;SDS011;15077;49.704;9.908;2022-07-12T03:55:04;2.40;;;1.90;;
27670;SDS011;15077;49.704;9.908;2022-07-12T03:57:31;3.97;;;2.72;;
27670;SDS011;15077;49.704;9.908;2022-07-12T03:59:58;4.25;;;3.20;;
27670;SDS011;15077;49.704;9.908;2022-07-12T04:02:24;3.55;;;2.75;;
27670;SDS011;15077;49.704;9.908;2022-07-12T04:04:50;2.78;;;2.10;;
27670;SDS011;15077;49.704;9.908;2022-07-12T04:07:16;3.00;;;2.08;;
27670;SDS011;15077;49.704;9.908;2022-07-12T04:09:43;2.35;;;1.60;;
27670;SDS011;15077;49.704;9.908;2022-07-12T04:12:09;2.20;;;1.50;;
27670;SDS011;15077;49.704;9.908;2022-07-12T04:14:35;1.58;;;1.00;;
27670;SDS011;15077;49.704;9.908;2022-07-12T04:17:03;1.65;;;0.82;;
27670;SDS011;15077;49.704;9.908;2022-07-12T04:19:30;1.02;;;0.70;;
27670;SDS011;15077;49.704;9.908;2022-07-12T04:21:58;1.23;;;0.45;;
27670;SDS011;15077;49.704;9.908;2022-07-12T04:24:24;1.23;;;0.60;;
27670;SDS011;15077;49.704;9.908;2022-07-12T04:26:50;0.95;;;0.50;;
27670;SDS011;15077;49.704;9.908;2022-07-12T04:29:17;0.70;;;0.68;;
27670;SDS011;15077;49.704;9.908;2022-07-12T04:31:45;0.60;;;0.40;;
27670;SDS011;15077;49.704;9.908;2022-07-12T04:34:11;0.80;;;0.57;;
27670;SDS011;15077;49.704;9.908;2022-07-12T04:36:42;0.93;;;0.52;;
27670;SDS011;15077;49.704;9.908;2022-07-12T04:39:10;0.57;;;0.43;;
27670;SDS011;15077;49.704;9.908;2022-07-12T04:41:37;1.27;;;0.70;;
27670;SDS011;15077;49.704;9.908;2022-07-12T04:44:03;0.68;;;0.50;;
27670;SDS011;15077;49.704;9.908;2022-07-12T04:46:33;1.38;;;0.60;;
27670;SDS011;15077;49.704;9.908;2022-07-12T04:48:59;0.70;;;0.70;;
27670;SDS011;15077;49.704;9.908;2022-07-12T04:51:26;0.70;;;0.70;;
27670;SDS011;15077;49.704;9.908;2022-07-12T04:53:52;0.57;;;0.50;;
27670;SDS011;15077;49.704;9.908;2022-07-12T04:56:19;1.58;;;0.70;;
27670;SDS011;15077;49.704;9.908;2022-07-12T04:58:45;2.28;;;0.65;;
27670;SDS011;15077;49.704;9.908;2022-07-12T05:01:10;0.68;;;0.60;;
27670;SDS011;15077;49.704;9.908;2022-07-12T05:03:36;2.25;;;0.70;;
27670;SDS011;15077;49.704;9.908;2022-07-12T05:06:02;1.42;;;0.80;;
27670;SDS011;15077;49.704;9.908;2022-07-12T05:08:28;3.53;;;0.60;;
27670;SDS011;15077;49.704;9.908;2022-07-12T05:10:55;1.10;;;0.50;;
27670;SDS011;15077;49.704;9.908;2022-07-12T05:13:21;0.57;;;0.40;;
27670;SDS011;15077;49.704;9.908;2022-07-12T05:15:46;1.08;;;0.60;;
27670;SDS011;15077;49.704;9.908;2022-07-12T05:18:12;0.50;;;0.40;;
27670;SDS011;15077;49.704;9.908;2022-07-12T05:20:39;1.52;;;0.50;;
27670;SDS011;15077;49.704;9.908;2022-07-12T05:23:06;0.70;;;0.50;;
27670;SDS011;15077;49.704;9.908;2022-07-12T05:25:32;0.80;;;0.60;;
27670;SDS011;15077;49.704;9.908;2022-07-12T05:27:58;1.00;;;0.57;;
27670;SDS011;15077;49.704;9.908;2022-07-12T05:30:24;0.80;;;0.70;;
27670;SDS011;15077;49.704;9.908;2022-07-12T05:32:52;0.70;;;0.70;;
27670;SDS011;15077;49.704;9.908;2022-07-12T05:35:18;0.50;;;0.50;;
27670;SDS011;15077;49.704;9.908;2022-07-12T05:37:44;0.55;;;0.45;;
27670;SDS011;15077;49.704;9.908;2022-07-12T05:40:10;0.57;;;0.40;;
27670;SDS011;15077;49.704;9.908;2022-07-12T05:42:36;0.93;;;0.50;;
27670;SDS011;15077;49.704;9.908;2022-07-12T05:45:02;0.88;;;0.70;;
27670;SDS011;15077;49.704;9.908;2022-07-12T05:47:30;1.23;;;0.70;;
27670;SDS011;15077;49.704;9.908;2022-07-12T05:49:57;1.20;;;0.73;;
27670;SDS011;15077;49.704;9.908;2022-07-12T05:52:23;0.77;;;0.60;;
27670;SDS011;15077;49.704;9.908;2022-07-12T05:55:08;0.65;;;0.60;;
27670;SDS011;15077;49.704;9.908;2022-07-12T05:57:34;1.27;;;0.50;;
27670;SDS011;15077;49.704;9.908;2022-07-12T06:00:00;0.68;;;0.60;;
27670;SDS011;15077;49.704;9.908;2022-07-12T06:02:26;0.50;;;0.50;;
27670;SDS011;15077;49.704;9.908;2022-07-12T06:04:52;1.00;;;0.70;;
27670;SDS011;15077;49.704;9.908;2022-07-12T06:07:17;1.02;;;0.70;;
27670;SDS011;15077;49.704;9.908;2022-07-12T06:09:43;1.88;;;0.90;;
27670;SDS011;15077;49.704;9.908;2022-07-12T06:12:09;2.15;;;0.95;;
27670;SDS011;15077;49.704;9.908;2022-07-12T06:14:35;1.20;;;0.82;;
27670;SDS011;15077;49.704;9.908;2022-07-12T06:17:00;0.55;;;0.50;;
27670;SDS011;15077;49.704;9.908;2022-07-12T06:19:26;1.45;;;0.80;;
27670;SDS011;15077;49.704;9.908;2022-07-12T06:21:52;1.40;;;0.93;;
27670;SDS011;15077;49.704;9.908;2022-07-12T06:24:18;1.00;;;0.50;;
27670;SDS011;15077;49.704;9.908;2022-07-12T06:26:44;1.15;;;0.93;;
27670;SDS011;15077;49.704;9.908;2022-07-12T06:29:09;1.45;;;1.35;;
27670;SDS011;15077;49.704;9.908;2022-07-12T06:31:36;1.42;;;0.93;;
27670;SDS011;15077;49.704;9.908;2022-07-12T06:34:02;2.28;;;1.02;;
27670;SDS011;15077;49.704;9.908;2022-07-12T06:36:28;0.98;;;0.73;;
27670;SDS011;15077;49.704;9.908;2022-07-12T06:38:53;0.80;;;0.60;;
27670;SDS011;15077;49.704;9.908;2022-07-12T06:41:20;1.38;;;0.60;;
27670;SDS011;15077;49.704;9.908;2022-07-12T06:43:45;0.85;;;0.52;;
27670;SDS011;15077;49.704;9.908;2022-07-12T06:46:11;1.52;;;1.23;;
27670;SDS011;15077;49.704;9.908;2022-07-12T06:48:37;1.20;;;0.85;;
27670;SDS011;15077;49.704;9.908;2022-07-12T06:51:02;0.65;;;0.50;;
27670;SDS011;15077;49.704;9.908;2022-07-12T06:53:28;1.63;;;1.00;;
27670;SDS011;15077;49.704;9.908;2022-07-12T06:55:54;1.45;;;1.27;;
27670;SDS011;15077;49.704;9.908;2022-07-12T06:58:22;1.92;;;0.90;;
27670;SDS011;15077;49.704;9.908;2022-07-12T07:00:48;1.10;;;0.80;;
27670;SDS011;15077;49.704;9.908;2022-07-12T07:03:14;1.52;;;1.20;;
27670;SDS011;15077;49.704;9.908;2022-07-12T07:05:40;1.17;;;0.60;;
27670;SDS011;15077;49.704;9.908;2022-07-12T07:08:05;1.33;;;0.95;;
27670;SDS011;15077;49.704;9.908;2022-07-12T07:10:31;0.90;;;0.70;;
27670;SDS011;15077;49.704;9.908;2022-07-12T07:12:58;1.02;;;0.50;;
27670;SDS011;15077;49.704;9.908;2022-07-12T07:15:25;1.33;;;0.90;;
27670;SDS011;15077;49.704;9.908;2022-07-12T07:17:51;1.30;;;0.90;;
27670;SDS011;15077;49.704;9.908;2022-07-12T07:20:17;1.17;;;1.08;;
27670;SDS011;15077;49.704;9.908;2022-07-12T07:22:43;1.38;;;0.90;;
27670;SDS011;15077;49.704;9.908;2022-07-12T07:25:09;0.93;;;0.82;;
27670;SDS011;15077;49.704;9.908;2022-07-12T07:27:37;0.90;;;0.77;;
27670;SDS011;15077;49.704;9.908;2022-07-12T07:30:04;1.90;;;1.20;;
27670;SDS011;15077;49.704;9.908;2022-07-12T07:32:49;1.52;;;1.10;;
27670;SDS011;15077;49.704;9.908;2022-07-12T07:35:17;2.15;;;0.90;;
27670;SDS011;15077;49.704;9.908;2022-07-12T07:37:43;1.50;;;1.27;;
27670;SDS011;15077;49.704;9.908;2022-07-12T07:40:09;2.20;;;1.40;;
27670;SDS011;15077;49.704;9.908;2022-07-12T07:42:35;1.65;;;1.30;;
27670;SDS011;15077;49.704;9.908;2022-07-12T07:45:01;1.80;;;0.90;;
27670;SDS011;15077;49.704;9.908;2022-07-12T07:47:28;1.15;;;0.90;;
27670;SDS011;15077;49.704;9.908;2022-07-12T07:49:54;1.60;;;1.00;;
27670;SDS011;15077;49.704;9.908;2022-07-12T07:52:21;2.40;;;1.00;;
27670;SDS011;15077;49.704;9.908;2022-07-12T07:54:46;1.42;;;0.70;;
27670;SDS011;15077;49.704;9.908;2022-07-12T07:57:12;0.93;;;0.82;;
27670;SDS011;15077;49.704;9.908;2022-07-12T07:59:38;1.38;;;1.00;;
27670;SDS011;15077;49.704;9.908;2022-07-12T08:02:04;1.10;;;1.00;;
27670;SDS011;15077;49.704;9.908;2022-07-12T08:04:30;3.00;;;1.08;;
27670;SDS011;15077;49.704;9.908;2022-07-12T08:06:56;1.52;;;1.00;;
27670;SDS011;15077;49.704;9.908;2022-07-12T08:09:23;1.55;;;0.98;;
27670;SDS011;15077;49.704;9.908;2022-07-12T08:11:49;0.60;;;0.50;;
27670;SDS011;15077;49.704;9.908;2022-07-12T08:14:15;1.17;;;0.70;;
27670;SDS011;15077;49.704;9.908;2022-07-12T08:16:42;0.70;;;0.68;;
27670;SDS011;15077;49.704;9.908;2022-07-12T08:19:08;0.88;;;0.80;;
27670;SDS011;15077;49.704;9.908;2022-07-12T08:21:34;1.00;;;0.70;;
27670;SDS011;15077;49.704;9.908;2022-07-12T08:24:00;1.83;;;0.90;;
27670;SDS011;15077;49.704;9.908;2022-07-12T08:26:26;0.95;;;0.65;;
27670;SDS011;15077;49.704;9.908;2022-07-12T08:28:52;0.50;;;0.50;;
27670;SDS011;15077;49.704;9.908;2022-07-12T08:31:18;0.50;;;0.50;;
27670;SDS011;15077;49.704;9.908;2022-07-12T08:33:44;0.52;;;0.50;;
27670;SDS011;15077;49.704;9.908;2022-07-12T08:36:09;1.10;;;0.60;;
27670;SDS011;15077;49.704;9.908;2022-07-12T08:38:35;0.50;;;0.30;;
27670;SDS011;15077;49.704;9.908;2022-07-12T08:41:05;0.40;;;0.40;;
27670;SDS011;15077;49.704;9.908;2022-07-12T08:43:36;0.40;;;0.40;;
27670;SDS011;15077;49.704;9.908;2022-07-12T08:46:03;1.13;;;0.50;;
27670;SDS011;15077;49.704;9.908;2022-07-12T08:48:35;0.47;;;0.40;;
27670;SDS011;15077;49.704;9.908;2022-07-12T08:51:03;0.77;;;0.57;;
27670;SDS011;15077;49.704;9.908;2022-07-12T08:56:01;1.52;;;0.50;;
27670;SDS011;15077;49.704;9.908;2022-07-12T08:58:31;1.73;;;0.50;;
27670;SDS011;15077;49.704;9.908;2022-07-12T09:00:57;0.60;;;0.50;;
27670;SDS011;15077;49.704;9.908;2022-07-12T09:03:23;1.38;;;0.40;;
27670;SDS011;15077;49.704;9.908;2022-07-12T09:05:50;1.48;;;1.02;;
27670;SDS011;15077;49.704;9.908;2022-07-12T09:11:00;0.95;;;0.60;;
27670;SDS011;15077;49.704;9.908;2022-07-12T09:16:20;0.65;;;0.57;;
27670;SDS011;15077;49.704;9.908;2022-07-12T09:18:48;2.08;;;0.80;;
27670;SDS011;15077;49.704;9.908;2022-07-12T09:21:25;0.77;;;0.77;;
27670;SDS011;15077;49.704;9.908;2022-07-12T09:23:58;2.85;;;0.77;;
27670;SDS011;15077;49.704;9.908;2022-07-12T09:26:29;0.82;;;0.60;;
27670;SDS011;15077;49.704;9.908;2022-07-12T09:29:19;1.85;;;0.70;;
27670;SDS011;15077;49.704;9.908;2022-07-12T09:31:49;1.20;;;0.68;;
27670;SDS011;15077;49.704;9.908;2022-07-12T09:34:38;0.57;;;0.55;;
27670;SDS011;15077;49.704;9.908;2022-07-12T09:37:23;0.40;;;0.40;;
27670;SDS011;15077;49.704;9.908;2022-07-12T09:39:53;1.40;;;0.65;;
27670;SDS011;15077;49.704;9.908;2022-07-12T09:42:20;0.60;;;0.60;;
27670;SDS011;15077;49.704;9.908;2022-07-12T09:44:46;1.75;;;0.82;;
27670;SDS011;15077;49.704;9.908;2022-07-12T09:47:14;0.88;;;0.77;;
27670;SDS011;15077;49.704;9.908;2022-07-12T09:49:44;0.95;;;0.50;;
27670;SDS011;15077;49.704;9.908;2022-07-12T09:52:20;0.70;;;0.50;;
27670;SDS011;15077;49.704;9.908;2022-07-12T09:54:50;0.60;;;0.50;;
27670;SDS011;15077;49.704;9.908;2022-07-12T09:59:57;1.00;;;0.50;;
27670;SDS011;15077;49.704;9.908;2022-07-12T10:02:26;0.60;;;0.50;;
27670;SDS011;15077;49.704;9.908;2022-07-12T10:04:53;0.60;;;0.40;;
27670;SDS011;15077;49.704;9.908;2022-07-12T10:07:20;0.50;;;0.40;;
27670;SDS011;15077;49.704;9.908;2022-07-12T10:09:48;0.38;;;0.38;;
27670;SDS011;15077;49.704;9.908;2022-07-12T10:12:19;0.80;;;0.50;;
27670;SDS011;15077;49.704;9.908;2022-07-12T10:14:48;0.65;;;0.50;;
27670;SDS011;15077;49.704;9.908;2022-07-12T10:22:44;0.60;;;0.50;;
27670;SDS011;15077;49.704;9.908;2022-07-12T10:25:44;0.65;;;0.52;;
27670;SDS011;15077;49.704;9.908;2022-07-12T10:28:03;0.82;;;0.68;;
27670;SDS011;15077;49.704;9.908;2022-07-12T10:30:29;0.65;;;0.57;;
27670;SDS011;15077;49.704;9.908;2022-07-12T10:33:05;1.23;;;0.73;;
27670;SDS011;15077;49.704;9.908;2022-07-12T10:38:28;0.32;;;0.30;;
27670;SDS011;15077;49.704;9.908;2022-07-12T10:40:55;0.38;;;0.38;;
27670;SDS011;15077;49.704;9.908;2022-07-12T10:43:21;0.50;;;0.50;;
27670;SDS011;15077;49.704;9.908;2022-07-12T10:46:21;0.70;;;0.50;;
27670;SDS011;15077;49.704;9.908;2022-07-12T10:48:49;0.50;;;0.40;;
27670;SDS011;15077;49.704;9.908;2022-07-12T10:51:17;0.40;;;0.40;;
27670;SDS011;15077;49.704;9.908;2022-07-12T10:53:47;0.70;;;0.60;;
27670;SDS011;15077;49.704;9.908;2022-07-12T10:56:24;0.75;;;0.50;;
27670;SDS011;15077;49.704;9.908;2022-07-12T10:58:52;0.88;;;0.57;;
27670;SDS011;15077;49.704;9.908;2022-07-12T11:01:30;0.63;;;0.57;;
27670;SDS011;15077;49.704;9.908;2022-07-12T11:04:09;0.70;;;0.52;;
27670;SDS011;15077;49.704;9.908;2022-07-12T11:06:37;0.55;;;0.40;;
27670;SDS011;15077;49.704;9.908;2022-07-12T11:09:08;0.60;;;0.60;;
27670;SDS011;15077;49.704;9.908;2022-07-12T11:11:48;0.77;;;0.65;;
27670;SDS011;15077;49.704;9.908;2022-07-12T11:14:23;0.77;;;0.60;;
27670;SDS011;15077;49.704;9.908;2022-07-12T11:16:51;1.02;;;0.80;;
27670;SDS011;15077;49.704;9.908;2022-07-12T11:19:28;1.05;;;0.75;;
27670;SDS011;15077;49.704;9.908;2022-07-12T11:21:56;0.80;;;0.60;;
27670;SDS011;15077;49.704;9.908;2022-07-12T11:24:29;0.77;;;0.50;;
27670;SDS011;15077;49.704;9.908;2022-07-12T11:26:57;0.68;;;0.50;;
27670;SDS011;15077;49.704;9.908;2022-07-12T11:29:27;1.30;;;0.60;;
27670;SDS011;15077;49.704;9.908;2022-07-12T11:32:32;0.65;;;0.45;;
27670;SDS011;15077;49.704;9.908;2022-07-12T11:34:59;0.50;;;0.40;;
27670;SDS011;15077;49.704;9.908;2022-07-12T11:37:24;0.52;;;0.38;;
27670;SDS011;15077;49.704;9.908;2022-07-12T11:39:50;0.40;;;0.38;;
27670;SDS011;15077;49.704;9.908;2022-07-12T11:42:16;0.52;;;0.45;;
27670;SDS011;15077;49.704;9.908;2022-07-12T11:44:47;0.80;;;0.40;;
27670;SDS011;15077;49.704;9.908;2022-07-12T11:47:17;0.75;;;0.50;;
27670;SDS011;15077;49.704;9.908;2022-07-12T11:49:45;0.50;;;0.40;;
27670;SDS011;15077;49.704;9.908;2022-07-12T11:52:23;0.63;;;0.40;;
27670;SDS011;15077;49.704;9.908;2022-07-12T11:54:53;0.32;;;0.30;;
27670;SDS011;15077;49.704;9.908;2022-07-12T11:57:19;0.35;;;0.30;;
27670;SDS011;15077;49.704;9.908;2022-07-12T11:59:51;0.38;;;0.38;;
27670;SDS011;15077;49.704;9.908;2022-07-12T12:02:17;0.82;;;0.30;;
27670;SDS011;15077;49.704;9.908;2022-07-12T12:04:47;1.00;;;0.50;;
27670;SDS011;15077;49.704;9.908;2022-07-12T12:07:13;0.40;;;0.28;;
27670;SDS011;15077;49.704;9.908;2022-07-12T12:09:59;0.43;;;0.43;;
27670;SDS011;15077;49.704;9.908;2022-07-12T12:12:36;0.40;;;0.40;;
27670;SDS011;15077;49.704;9.908;2022-07-12T12:15:11;0.40;;;0.40;;
27670;SDS011;15077;49.704;9.908;2022-07-12T12:20:17;0.47;;;0.47;;
27670;SDS011;15077;49.704;9.908;2022-07-12T12:23:14;0.38;;;0.38;;
27670;SDS011;15077;49.704;9.908;2022-07-12T12:25:42;0.52;;;0.47;;
27670;SDS011;15077;49.704;9.908;2022-07-12T12:28:09;0.50;;;0.40;;
27670;SDS011;15077;49.704;9.908;2022-07-12T12:30:41;1.05;;;0.57;;
27670;SDS011;15077;49.704;9.908;2022-07-12T12:33:38;0.77;;;0.50;;
27670;SDS011;15077;49.704;9.908;2022-07-12T12:36:13;0.50;;;0.40;;
27670;SDS011;15077;49.704;9.908;2022-07-12T12:38:51;0.82;;;0.60;;
27670;SDS011;15077;49.704;9.908;2022-07-12T12:41:22;0.45;;;0.40;;
27670;SDS011;15077;49.704;9.908;2022-07-12T12:52:18;0.40;;;0.40;;
27670;SDS011;15077;49.704;9.908;2022-07-12T12:54:44;0.90;;;0.50;;
27670;SDS011;15077;49.704;9.908;2022-07-12T12:57:12;0.63;;;0.50;;
27670;SDS011;15077;49.704;9.908;2022-07-12T12:59:38;0.47;;;0.40;;
27670;SDS011;15077;49.704;9.908;2022-07-12T13:02:05;0.40;;;0.40;;
27670;SDS011;15077;49.704;9.908;2022-07-12T13:04:33;1.30;;;0.70;;
27670;SDS011;15077;49.704;9.908;2022-07-12T13:07:01;0.28;;;0.28;;
27670;SDS011;15077;49.704;9.908;2022-07-12T13:09:28;1.17;;;0.60;;
27670;SDS011;15077;49.704;9.908;2022-07-12T13:11:54;1.15;;;0.50;;
27670;SDS011;15077;49.704;9.908;2022-07-12T13:14:21;0.30;;;0.30;;
27670;SDS011;15077;49.704;9.908;2022-07-12T13:16:50;0.60;;;0.50;;
27670;SDS011;15077;49.704;9.908;2022-07-12T13:19:16;0.50;;;0.40;;
27670;SDS011;15077;49.704;9.908;2022-07-12T13:21:43;0.45;;;0.35;;
27670;SDS011;15077;49.704;9.908;2022-07-12T13:24:09;0.70;;;0.60;;
27670;SDS011;15077;49.704;9.908;2022-07-12T13:26:35;0.70;;;0.40;;
27670;SDS011;15077;49.704;9.908;2022-07-12T13:29:02;0.40;;;0.40;;
27670;SDS011;15077;49.704;9.908;2022-07-12T13:31:28;0.50;;;0.40;;
27670;SDS011;15077;49.704;9.908;2022-07-12T13:33:54;0.30;;;0.20;;
27670;SDS011;15077;49.704;9.908;2022-07-12T13:36:21;0.40;;;0.40;;
27670;SDS011;15077;49.704;9.908;2022-07-12T13:38:48;0.50;;;0.43;;
27670;SDS011;15077;49.704;9.908;2022-07-12T13:41:14;0.57;;;0.40;;
27670;SDS011;15077;49.704;9.908;2022-07-12T13:43:40;0.40;;;0.40;;
27670;SDS011;15077;49.704;9.908;2022-07-12T13:46:06;1.02;;;0.40;;
27670;SDS011;15077;49.704;9.908;2022-07-12T13:48:32;1.13;;;0.40;;
27670;SDS011;15077;49.704;9.908;2022-07-12T13:51:00;0.90;;;0.52;;
27670;SDS011;15077;49.704;9.908;2022-07-12T13:53:26;0.50;;;0.30;;
27670;SDS011;15077;49.704;9.908;2022-07-12T13:55:53;0.95;;;0.60;;
27670;SDS011;15077;49.704;9.908;2022-07-12T13:58:19;0.70;;;0.30;;
27670;SDS011;15077;49.704;9.908;2022-07-12T14:00:45;0.45;;;0.40;;
27670;SDS011;15077;49.704;9.908;2022-07-12T14:03:11;0.30;;;0.30;;
27670;SDS011;15077;49.704;9.908;2022-07-12T14:05:38;0.30;;;0.30;;
27670;SDS011;15077;49.704;9.908;2022-07-12T14:08:05;0.30;;;0.30;;
27670;SDS011;15077;49.704;9.908;2022-07-12T14:10:30;0.22;;;0.22;;
27670;SDS011;15077;49.704;9.908;2022-07-12T14:13:00;0.68;;;0.40;;
27670;SDS011;15077;49.704;9.908;2022-07-12T14:15:26;1.10;;;0.25;;
27670;SDS011;15077;49.704;9.908;2022-07-12T14:18:01;0.43;;;0.43;;
27670;SDS011;15077;49.704;9.908;2022-07-12T14:20:30;1.05;;;0.30;;
27670;SDS011;15077;49.704;9.908;2022-07-12T14:22:56;0.55;;;0.40;;
27670;SDS011;15077;49.704;9.908;2022-07-12T14:25:22;0.30;;;0.20;;
27670;SDS011;15077;49.704;9.908;2022-07-12T14:27:48;0.38;;;0.20;;
27670;SDS011;15077;49.704;9.908;2022-07-12T14:30:14;0.40;;;0.20;;
27670;SDS011;15077;49.704;9.908;2022-07-12T14:32:40;0.30;;;0.30;;
27670;SDS011;15077;49.704;9.908;2022-07-12T14:35:06;0.60;;;0.50;;
27670;SDS011;15077;49.704;9.908;2022-07-12T14:37:35;0.35;;;0.30;;
27670;SDS011;15077;49.704;9.908;2022-07-12T14:40:05;0.63;;;0.30;;
27670;SDS011;15077;49.704;9.908;2022-07-12T14:42:32;0.50;;;0.40;;
27670;SDS011;15077;49.704;9.908;2022-07-12T14:44:58;0.30;;;0.30;;
27670;SDS011;15077;49.704;9.908;2022-07-12T14:47:24;0.35;;;0.30;;
27670;SDS011;15077;49.704;9.908;2022-07-12T14:49:50;0.88;;;0.40;;
27670;SDS011;15077;49.704;9.908;2022-07-12T14:52:18;0.57;;;0.40;;
27670;SDS011;15077;49.704;9.908;2022-07-12T14:54:45;0.25;;;0.25;;
27670;SDS011;15077;49.704;9.908;2022-07-12T14:57:11;5.18;;;0.30;;
27670;SDS011;15077;49.704;9.908;2022-07-12T14:59:37;0.20;;;0.20;;
27670;SDS011;15077;49.704;9.908;2022-07-12T15:02:03;0.38;;;0.30;;
27670;SDS011;15077;49.704;9.908;2022-07-12T15:04:29;1.17;;;0.20;;
27670;SDS011;15077;49.704;9.908;2022-07-12T15:06:55;0.45;;;0.22;;
27670;SDS011;15077;49.704;9.908;2022-07-12T15:09:21;0.65;;;0.20;;
27670;SDS011;15077;49.704;9.908;2022-07-12T15:11:48;0.30;;;0.28;;
27670;SDS011;15077;49.704;9.908;2022-07-12T15:14:14;0.20;;;0.20;;
27670;SDS011;15077;49.704;9.908;2022-07-12T15:16:40;0.20;;;0.20;;
27670;SDS011;15077;49.704;9.908;2022-07-12T15:19:06;0.25;;;0.22;;
27670;SDS011;15077;49.704;9.908;2022-07-12T15:21:33;0.73;;;0.50;;
27670;SDS011;15077;49.704;9.908;2022-07-12T15:23:59;0.30;;;0.20;;